sensor_id;sensor_type;location;lat;lon;timestamp;P1;durP1;ratioP1;P2;durP2;ratioP2
66946;SDS011;53853;51.982;5.928;2024-02-28T00:02:12;27.07;;;20.17;;
66946;SDS011;53853;51.982;5.928;2024-02-28T00:04:42;30.20;;;21.45;;
66946;SDS011;53853;51.982;5.928;2024-02-28T00:07:12;30.30;;;21.65;;
66946;SDS011;53853;51.982;5.928;2024-02-28T00:09:43;26.05;;;18.90;;
66946;SDS011;53853;51.982;5.928;2024-02-28T00:12:13;28.27;;;20.77;;
66946;SDS011;53853;51.982;5.928;2024-02-28T00:14:46;25.65;;;18.65;;
66946;SDS011;53853;51.982;5.928;2024-02-28T00:17:15;25.05;;;19.25;;
66946;SDS011;53853;51.982;5.928;2024-02-28T00:19:45;27.95;;;19.23;;
66946;SDS011;53853;51.982;5.928;2024-02-28T00:22:15;36.42;;;25.25;;
66946;SDS011;53853;51.982;5.928;2024-02-28T00:24:45;33.58;;;23.95;;
66946;SDS011;53853;51.982;5.928;2024-02-28T00:27:15;31.00;;;22.40;;
66946;SDS011;53853;51.982;5.928;2024-02-28T00:29:47;27.75;;;20.52;;
66946;SDS011;53853;51.982;5.928;2024-02-28T00:32:17;26.02;;;18.60;;
66946;SDS011;53853;51.982;5.928;2024-02-28T00:34:47;27.95;;;20.15;;
66946;SDS011;53853;51.982;5.928;2024-02-28T00:37:17;31.33;;;21.90;;
66946;SDS011;53853;51.982;5.928;2024-02-28T00:39:47;28.83;;;21.10;;
66946;SDS011;53853;51.982;5.928;2024-02-28T00:42:18;29.27;;;21.58;;
66946;SDS011;53853;51.982;5.928;2024-02-28T00:44:50;29.00;;;22.15;;
66946;SDS011;53853;51.982;5.928;2024-02-28T00:47:20;27.83;;;20.48;;
66946;SDS011;53853;51.982;5.928;2024-02-28T00:49:50;24.30;;;18.25;;
66946;SDS011;53853;51.982;5.928;2024-02-28T00:52:20;28.15;;;21.13;;
66946;SDS011;53853;51.982;5.928;2024-02-28T00:54:51;30.45;;;22.02;;
66946;SDS011;53853;51.982;5.928;2024-02-28T00:57:20;26.60;;;19.67;;
66946;SDS011;53853;51.982;5.928;2024-02-28T00:59:53;28.30;;;20.77;;
66946;SDS011;53853;51.982;5.928;2024-02-28T01:02:23;27.83;;;20.30;;
66946;SDS011;53853;51.982;5.928;2024-02-28T01:04:53;31.10;;;22.17;;
66946;SDS011;53853;51.982;5.928;2024-02-28T01:07:22;29.52;;;21.88;;
66946;SDS011;53853;51.982;5.928;2024-02-28T01:09:52;30.88;;;21.55;;
66946;SDS011;53853;51.982;5.928;2024-02-28T01:12:22;29.00;;;21.55;;
66946;SDS011;53853;51.982;5.928;2024-02-28T01:14:55;30.08;;;21.15;;
66946;SDS011;53853;51.982;5.928;2024-02-28T01:17:24;28.98;;;20.52;;
66946;SDS011;53853;51.982;5.928;2024-02-28T01:19:54;29.20;;;22.23;;
66946;SDS011;53853;51.982;5.928;2024-02-28T01:22:24;29.10;;;21.30;;
66946;SDS011;53853;51.982;5.928;2024-02-28T01:24:54;34.05;;;24.30;;
66946;SDS011;53853;51.982;5.928;2024-02-28T01:27:24;28.60;;;21.10;;
66946;SDS011;53853;51.982;5.928;2024-02-28T01:29:56;29.42;;;20.45;;
66946;SDS011;53853;51.982;5.928;2024-02-28T01:32:27;33.63;;;24.65;;
66946;SDS011;53853;51.982;5.928;2024-02-28T01:34:57;29.25;;;21.00;;
66946;SDS011;53853;51.982;5.928;2024-02-28T01:37:28;32.65;;;23.20;;
66946;SDS011;53853;51.982;5.928;2024-02-28T01:39:58;31.35;;;23.50;;
66946;SDS011;53853;51.982;5.928;2024-02-28T01:42:30;35.70;;;26.60;;
66946;SDS011;53853;51.982;5.928;2024-02-28T01:45:02;32.95;;;23.50;;
66946;SDS011;53853;51.982;5.928;2024-02-28T01:47:34;29.88;;;22.48;;
66946;SDS011;53853;51.982;5.928;2024-02-28T01:50:05;32.28;;;22.90;;
66946;SDS011;53853;51.982;5.928;2024-02-28T01:52:36;32.55;;;22.40;;
66946;SDS011;53853;51.982;5.928;2024-02-28T01:55:07;31.85;;;22.60;;
66946;SDS011;53853;51.982;5.928;2024-02-28T01:57:38;31.05;;;21.63;;
66946;SDS011;53853;51.982;5.928;2024-02-28T02:00:11;33.58;;;23.40;;
66946;SDS011;53853;51.982;5.928;2024-02-28T02:02:41;29.90;;;22.15;;
66946;SDS011;53853;51.982;5.928;2024-02-28T02:05:11;27.85;;;20.40;;
66946;SDS011;53853;51.982;5.928;2024-02-28T02:07:42;37.97;;;25.45;;
66946;SDS011;53853;51.982;5.928;2024-02-28T02:10:12;39.42;;;26.80;;
66946;SDS011;53853;51.982;5.928;2024-02-28T02:12:42;33.67;;;24.20;;
66946;SDS011;53853;51.982;5.928;2024-02-28T02:15:15;33.80;;;25.50;;
66946;SDS011;53853;51.982;5.928;2024-02-28T02:17:45;32.70;;;24.27;;
66946;SDS011;53853;51.982;5.928;2024-02-28T02:20:14;27.95;;;20.60;;
66946;SDS011;53853;51.982;5.928;2024-02-28T02:22:48;26.10;;;20.15;;
66946;SDS011;53853;51.982;5.928;2024-02-28T02:25:17;26.20;;;18.55;;
66946;SDS011;53853;51.982;5.928;2024-02-28T02:27:47;29.42;;;20.73;;
66946;SDS011;53853;51.982;5.928;2024-02-28T02:30:17;28.83;;;20.25;;
66946;SDS011;53853;51.982;5.928;2024-02-28T02:32:47;25.52;;;19.73;;
66946;SDS011;53853;51.982;5.928;2024-02-28T02:35:17;30.65;;;23.00;;
66946;SDS011;53853;51.982;5.928;2024-02-28T02:37:49;37.60;;;24.25;;
66946;SDS011;53853;51.982;5.928;2024-02-28T02:40:19;29.65;;;22.58;;
66946;SDS011;53853;51.982;5.928;2024-02-28T02:42:49;29.55;;;21.80;;
66946;SDS011;53853;51.982;5.928;2024-02-28T02:45:19;32.05;;;22.83;;
66946;SDS011;53853;51.982;5.928;2024-02-28T02:47:49;36.67;;;22.17;;
66946;SDS011;53853;51.982;5.928;2024-02-28T02:50:19;30.88;;;22.25;;
66946;SDS011;53853;51.982;5.928;2024-02-28T02:52:51;28.70;;;22.17;;
66946;SDS011;53853;51.982;5.928;2024-02-28T02:55:21;28.27;;;20.58;;
66946;SDS011;53853;51.982;5.928;2024-02-28T02:57:51;31.65;;;22.58;;
66946;SDS011;53853;51.982;5.928;2024-02-28T03:00:21;32.78;;;20.85;;
66946;SDS011;53853;51.982;5.928;2024-02-28T03:02:51;24.60;;;18.42;;
66946;SDS011;53853;51.982;5.928;2024-02-28T03:05:21;35.58;;;18.90;;
66946;SDS011;53853;51.982;5.928;2024-02-28T03:07:53;26.75;;;19.15;;
66946;SDS011;53853;51.982;5.928;2024-02-28T03:10:23;28.50;;;20.83;;
66946;SDS011;53853;51.982;5.928;2024-02-28T03:12:53;27.10;;;18.83;;
66946;SDS011;53853;51.982;5.928;2024-02-28T03:15:23;35.22;;;23.00;;
66946;SDS011;53853;51.982;5.928;2024-02-28T03:17:53;26.00;;;19.42;;
66946;SDS011;53853;51.982;5.928;2024-02-28T03:20:23;29.38;;;19.77;;
66946;SDS011;53853;51.982;5.928;2024-02-28T03:22:55;25.35;;;18.63;;
66946;SDS011;53853;51.982;5.928;2024-02-28T03:25:25;24.23;;;16.60;;
66946;SDS011;53853;51.982;5.928;2024-02-28T03:27:55;23.80;;;16.77;;
66946;SDS011;53853;51.982;5.928;2024-02-28T03:30:25;26.00;;;20.08;;
66946;SDS011;53853;51.982;5.928;2024-02-28T03:32:55;26.95;;;19.70;;
66946;SDS011;53853;51.982;5.928;2024-02-28T03:35:25;30.33;;;21.60;;
66946;SDS011;53853;51.982;5.928;2024-02-28T03:37:57;32.65;;;23.80;;
66946;SDS011;53853;51.982;5.928;2024-02-28T03:40:27;48.47;;;35.28;;
66946;SDS011;53853;51.982;5.928;2024-02-28T03:42:57;56.58;;;39.55;;
66946;SDS011;53853;51.982;5.928;2024-02-28T03:45:27;59.20;;;41.05;;
66946;SDS011;53853;51.982;5.928;2024-02-28T03:47:57;52.58;;;36.92;;
66946;SDS011;53853;51.982;5.928;2024-02-28T03:50:27;48.92;;;31.15;;
66946;SDS011;53853;51.982;5.928;2024-02-28T03:53:00;33.38;;;23.67;;
66946;SDS011;53853;51.982;5.928;2024-02-28T03:55:29;33.92;;;23.70;;
66946;SDS011;53853;51.982;5.928;2024-02-28T03:57:59;29.20;;;21.75;;
66946;SDS011;53853;51.982;5.928;2024-02-28T04:00:29;26.25;;;19.13;;
66946;SDS011;53853;51.982;5.928;2024-02-28T04:02:59;23.77;;;18.55;;
66946;SDS011;53853;51.982;5.928;2024-02-28T04:05:29;21.55;;;16.63;;
66946;SDS011;53853;51.982;5.928;2024-02-28T04:08:01;25.10;;;19.85;;
66946;SDS011;53853;51.982;5.928;2024-02-28T04:10:31;21.58;;;17.52;;
66946;SDS011;53853;51.982;5.928;2024-02-28T04:13:01;21.92;;;16.20;;
66946;SDS011;53853;51.982;5.928;2024-02-28T04:15:32;24.52;;;17.80;;
66946;SDS011;53853;51.982;5.928;2024-02-28T04:18:03;23.70;;;17.73;;
66946;SDS011;53853;51.982;5.928;2024-02-28T04:20:33;23.23;;;18.85;;
66946;SDS011;53853;51.982;5.928;2024-02-28T04:23:06;22.02;;;17.95;;
66946;SDS011;53853;51.982;5.928;2024-02-28T04:25:36;27.27;;;18.85;;
66946;SDS011;53853;51.982;5.928;2024-02-28T04:28:06;24.00;;;18.10;;
66946;SDS011;53853;51.982;5.928;2024-02-28T04:30:37;23.48;;;17.95;;
66946;SDS011;53853;51.982;5.928;2024-02-28T04:33:07;22.98;;;17.85;;
66946;SDS011;53853;51.982;5.928;2024-02-28T04:35:36;23.88;;;18.75;;
66946;SDS011;53853;51.982;5.928;2024-02-28T04:38:09;23.77;;;19.50;;
66946;SDS011;53853;51.982;5.928;2024-02-28T04:40:39;24.85;;;19.75;;
66946;SDS011;53853;51.982;5.928;2024-02-28T04:43:08;28.55;;;20.17;;
66946;SDS011;53853;51.982;5.928;2024-02-28T04:45:38;23.02;;;18.13;;
66946;SDS011;53853;51.982;5.928;2024-02-28T04:48:08;23.10;;;18.25;;
66946;SDS011;53853;51.982;5.928;2024-02-28T04:50:38;21.17;;;17.33;;
66946;SDS011;53853;51.982;5.928;2024-02-28T04:53:10;19.23;;;15.63;;
66946;SDS011;53853;51.982;5.928;2024-02-28T04:55:40;26.20;;;19.60;;
66946;SDS011;53853;51.982;5.928;2024-02-28T04:58:10;20.02;;;16.05;;
66946;SDS011;53853;51.982;5.928;2024-02-28T05:00:40;26.45;;;20.50;;
66946;SDS011;53853;51.982;5.928;2024-02-28T05:03:10;23.70;;;19.10;;
66946;SDS011;53853;51.982;5.928;2024-02-28T05:05:39;19.25;;;15.57;;
66946;SDS011;53853;51.982;5.928;2024-02-28T05:08:12;20.52;;;15.80;;
66946;SDS011;53853;51.982;5.928;2024-02-28T05:10:42;25.83;;;18.58;;
66946;SDS011;53853;51.982;5.928;2024-02-28T05:13:12;22.50;;;18.13;;
66946;SDS011;53853;51.982;5.928;2024-02-28T05:15:41;22.83;;;18.45;;
66946;SDS011;53853;51.982;5.928;2024-02-28T05:18:11;22.38;;;17.52;;
66946;SDS011;53853;51.982;5.928;2024-02-28T05:20:41;20.83;;;17.10;;
66946;SDS011;53853;51.982;5.928;2024-02-28T05:23:14;19.15;;;16.25;;
66946;SDS011;53853;51.982;5.928;2024-02-28T05:25:43;20.77;;;15.80;;
66946;SDS011;53853;51.982;5.928;2024-02-28T05:28:14;26.33;;;18.05;;
66946;SDS011;53853;51.982;5.928;2024-02-28T05:30:44;18.17;;;15.30;;
66946;SDS011;53853;51.982;5.928;2024-02-28T05:33:14;25.90;;;18.13;;
66946;SDS011;53853;51.982;5.928;2024-02-28T05:35:44;20.10;;;16.38;;
66946;SDS011;53853;51.982;5.928;2024-02-28T05:38:17;22.88;;;17.73;;
66946;SDS011;53853;51.982;5.928;2024-02-28T05:40:46;21.42;;;16.90;;
66946;SDS011;53853;51.982;5.928;2024-02-28T05:43:16;21.02;;;17.55;;
66946;SDS011;53853;51.982;5.928;2024-02-28T05:45:46;20.48;;;16.80;;
66946;SDS011;53853;51.982;5.928;2024-02-28T05:48:16;21.00;;;16.10;;
66946;SDS011;53853;51.982;5.928;2024-02-28T05:50:46;21.13;;;15.95;;
66946;SDS011;53853;51.982;5.928;2024-02-28T05:53:18;22.98;;;17.95;;
66946;SDS011;53853;51.982;5.928;2024-02-28T05:55:52;20.35;;;17.15;;
66946;SDS011;53853;51.982;5.928;2024-02-28T05:58:22;18.77;;;15.45;;
66946;SDS011;53853;51.982;5.928;2024-02-28T06:00:52;18.75;;;15.68;;
66946;SDS011;53853;51.982;5.928;2024-02-28T06:03:22;17.30;;;14.85;;
66946;SDS011;53853;51.982;5.928;2024-02-28T06:05:52;18.50;;;15.27;;
66946;SDS011;53853;51.982;5.928;2024-02-28T06:08:26;16.05;;;13.70;;
66946;SDS011;53853;51.982;5.928;2024-02-28T06:10:57;17.80;;;15.63;;
66946;SDS011;53853;51.982;5.928;2024-02-28T06:13:27;18.10;;;14.98;;
66946;SDS011;53853;51.982;5.928;2024-02-28T06:15:57;17.92;;;14.70;;
66946;SDS011;53853;51.982;5.928;2024-02-28T06:18:27;17.38;;;13.90;;
66946;SDS011;53853;51.982;5.928;2024-02-28T06:20:59;19.75;;;15.90;;
66946;SDS011;53853;51.982;5.928;2024-02-28T06:23:32;19.23;;;15.40;;
66946;SDS011;53853;51.982;5.928;2024-02-28T06:26:02;19.55;;;15.98;;
66946;SDS011;53853;51.982;5.928;2024-02-28T06:28:32;21.15;;;15.93;;
66946;SDS011;53853;51.982;5.928;2024-02-28T06:31:04;17.98;;;14.70;;
66946;SDS011;53853;51.982;5.928;2024-02-28T06:33:39;17.63;;;14.95;;
66946;SDS011;53853;51.982;5.928;2024-02-28T06:36:09;21.13;;;16.27;;
66946;SDS011;53853;51.982;5.928;2024-02-28T06:38:42;15.90;;;13.75;;
66946;SDS011;53853;51.982;5.928;2024-02-28T06:41:12;16.98;;;14.45;;
66946;SDS011;53853;51.982;5.928;2024-02-28T06:43:42;18.15;;;15.68;;
66946;SDS011;53853;51.982;5.928;2024-02-28T06:46:12;18.70;;;15.15;;
66946;SDS011;53853;51.982;5.928;2024-02-28T06:48:43;17.58;;;14.82;;
66946;SDS011;53853;51.982;5.928;2024-02-28T06:51:13;18.55;;;15.05;;
66946;SDS011;53853;51.982;5.928;2024-02-28T06:53:48;18.10;;;14.18;;
66946;SDS011;53853;51.982;5.928;2024-02-28T06:56:18;16.95;;;14.48;;
66946;SDS011;53853;51.982;5.928;2024-02-28T06:58:47;18.70;;;14.55;;
66946;SDS011;53853;51.982;5.928;2024-02-28T07:01:18;17.88;;;15.10;;
66946;SDS011;53853;51.982;5.928;2024-02-28T07:03:47;18.10;;;15.32;;
66946;SDS011;53853;51.982;5.928;2024-02-28T07:06:17;17.45;;;14.77;;
66946;SDS011;53853;51.982;5.928;2024-02-28T07:08:50;17.70;;;14.65;;
66946;SDS011;53853;51.982;5.928;2024-02-28T07:11:20;20.40;;;16.20;;
66946;SDS011;53853;51.982;5.928;2024-02-28T07:13:49;19.35;;;16.23;;
66946;SDS011;53853;51.982;5.928;2024-02-28T07:16:19;21.00;;;16.45;;
66946;SDS011;53853;51.982;5.928;2024-02-28T07:18:49;21.50;;;17.67;;
66946;SDS011;53853;51.982;5.928;2024-02-28T07:21:19;20.98;;;16.50;;
66946;SDS011;53853;51.982;5.928;2024-02-28T07:23:51;20.25;;;16.67;;
66946;SDS011;53853;51.982;5.928;2024-02-28T07:26:21;21.02;;;15.85;;
66946;SDS011;53853;51.982;5.928;2024-02-28T07:28:51;19.52;;;15.55;;
66946;SDS011;53853;51.982;5.928;2024-02-28T07:31:21;17.90;;;15.13;;
66946;SDS011;53853;51.982;5.928;2024-02-28T07:33:51;18.77;;;15.70;;
66946;SDS011;53853;51.982;5.928;2024-02-28T07:36:21;19.92;;;16.17;;
66946;SDS011;53853;51.982;5.928;2024-02-28T07:38:53;21.55;;;18.38;;
66946;SDS011;53853;51.982;5.928;2024-02-28T07:41:23;21.10;;;17.48;;
66946;SDS011;53853;51.982;5.928;2024-02-28T07:43:53;20.63;;;17.60;;
66946;SDS011;53853;51.982;5.928;2024-02-28T07:46:23;19.88;;;17.55;;
66946;SDS011;53853;51.982;5.928;2024-02-28T07:48:53;19.50;;;16.20;;
66946;SDS011;53853;51.982;5.928;2024-02-28T07:51:23;20.83;;;18.27;;
66946;SDS011;53853;51.982;5.928;2024-02-28T07:53:55;20.60;;;17.23;;
66946;SDS011;53853;51.982;5.928;2024-02-28T07:56:25;22.42;;;17.25;;
66946;SDS011;53853;51.982;5.928;2024-02-28T07:58:55;20.83;;;18.27;;
66946;SDS011;53853;51.982;5.928;2024-02-28T08:01:25;19.58;;;17.30;;
66946;SDS011;53853;51.982;5.928;2024-02-28T08:03:55;20.92;;;18.13;;
66946;SDS011;53853;51.982;5.928;2024-02-28T08:06:25;20.38;;;17.40;;
66946;SDS011;53853;51.982;5.928;2024-02-28T08:08:57;24.02;;;17.23;;
66946;SDS011;53853;51.982;5.928;2024-02-28T08:11:30;26.45;;;18.38;;
66946;SDS011;53853;51.982;5.928;2024-02-28T08:13:59;23.00;;;18.67;;
66946;SDS011;53853;51.982;5.928;2024-02-28T08:16:29;21.42;;;18.38;;
66946;SDS011;53853;51.982;5.928;2024-02-28T08:18:59;23.45;;;17.63;;
66946;SDS011;53853;51.982;5.928;2024-02-28T08:21:29;21.33;;;17.48;;
66946;SDS011;53853;51.982;5.928;2024-02-28T08:24:01;21.40;;;17.52;;
66946;SDS011;53853;51.982;5.928;2024-02-28T08:26:32;23.38;;;19.05;;
66946;SDS011;53853;51.982;5.928;2024-02-28T08:29:02;22.33;;;18.08;;
66946;SDS011;53853;51.982;5.928;2024-02-28T08:31:31;31.08;;;23.05;;
66946;SDS011;53853;51.982;5.928;2024-02-28T08:34:01;30.50;;;24.15;;
66946;SDS011;53853;51.982;5.928;2024-02-28T08:36:31;30.98;;;23.80;;
66946;SDS011;53853;51.982;5.928;2024-02-28T08:39:04;27.00;;;20.92;;
66946;SDS011;53853;51.982;5.928;2024-02-28T08:41:35;27.75;;;20.88;;
66946;SDS011;53853;51.982;5.928;2024-02-28T08:44:05;26.17;;;21.00;;
66946;SDS011;53853;51.982;5.928;2024-02-28T08:46:34;31.95;;;23.15;;
66946;SDS011;53853;51.982;5.928;2024-02-28T08:49:04;30.55;;;23.13;;
66946;SDS011;53853;51.982;5.928;2024-02-28T08:51:34;29.60;;;21.95;;
66946;SDS011;53853;51.982;5.928;2024-02-28T08:54:08;29.00;;;21.02;;
66946;SDS011;53853;51.982;5.928;2024-02-28T08:56:38;33.20;;;25.10;;
66946;SDS011;53853;51.982;5.928;2024-02-28T08:59:08;34.53;;;22.52;;
66946;SDS011;53853;51.982;5.928;2024-02-28T09:01:38;26.77;;;20.90;;
66946;SDS011;53853;51.982;5.928;2024-02-28T09:04:08;31.60;;;22.60;;
66946;SDS011;53853;51.982;5.928;2024-02-28T09:06:38;25.15;;;20.25;;
66946;SDS011;53853;51.982;5.928;2024-02-28T09:09:10;33.63;;;25.13;;
66946;SDS011;53853;51.982;5.928;2024-02-28T09:11:40;29.30;;;23.13;;
66946;SDS011;53853;51.982;5.928;2024-02-28T09:14:10;30.05;;;23.15;;
66946;SDS011;53853;51.982;5.928;2024-02-28T09:16:40;26.27;;;20.40;;
66946;SDS011;53853;51.982;5.928;2024-02-28T09:19:10;32.03;;;23.90;;
66946;SDS011;53853;51.982;5.928;2024-02-28T09:21:40;27.63;;;21.35;;
66946;SDS011;53853;51.982;5.928;2024-02-28T09:24:12;30.17;;;23.52;;
66946;SDS011;53853;51.982;5.928;2024-02-28T09:26:42;27.88;;;21.88;;
66946;SDS011;53853;51.982;5.928;2024-02-28T09:29:12;29.38;;;23.50;;
66946;SDS011;53853;51.982;5.928;2024-02-28T09:31:42;35.35;;;27.75;;
66946;SDS011;53853;51.982;5.928;2024-02-28T09:34:12;33.78;;;24.73;;
66946;SDS011;53853;51.982;5.928;2024-02-28T09:36:42;28.92;;;24.08;;
66946;SDS011;53853;51.982;5.928;2024-02-28T09:39:15;27.95;;;21.13;;
66946;SDS011;53853;51.982;5.928;2024-02-28T09:41:46;34.75;;;27.50;;
66946;SDS011;53853;51.982;5.928;2024-02-28T09:44:17;30.60;;;24.40;;
66946;SDS011;53853;51.982;5.928;2024-02-28T09:46:49;29.25;;;23.20;;
66946;SDS011;53853;51.982;5.928;2024-02-28T09:49:20;30.70;;;24.27;;
66946;SDS011;53853;51.982;5.928;2024-02-28T09:51:52;30.23;;;24.75;;
66946;SDS011;53853;51.982;5.928;2024-02-28T09:54:25;31.52;;;26.55;;
66946;SDS011;53853;51.982;5.928;2024-02-28T09:56:55;32.45;;;27.40;;
66946;SDS011;53853;51.982;5.928;2024-02-28T09:59:25;31.73;;;24.40;;
66946;SDS011;53853;51.982;5.928;2024-02-28T10:01:56;28.33;;;22.05;;
66946;SDS011;53853;51.982;5.928;2024-02-28T10:04:29;26.75;;;21.58;;
66946;SDS011;53853;51.982;5.928;2024-02-28T10:06:59;28.75;;;21.17;;
66946;SDS011;53853;51.982;5.928;2024-02-28T10:09:43;24.85;;;21.80;;
66946;SDS011;53853;51.982;5.928;2024-02-28T10:12:13;25.48;;;20.98;;
66946;SDS011;53853;51.982;5.928;2024-02-28T10:14:44;22.45;;;19.98;;
66946;SDS011;53853;51.982;5.928;2024-02-28T10:17:17;25.15;;;21.63;;
66946;SDS011;53853;51.982;5.928;2024-02-28T10:19:47;24.55;;;21.70;;
66946;SDS011;53853;51.982;5.928;2024-02-28T10:22:19;27.63;;;23.45;;
66946;SDS011;53853;51.982;5.928;2024-02-28T10:24:56;30.98;;;26.42;;
66946;SDS011;53853;51.982;5.928;2024-02-28T10:27:26;43.45;;;32.45;;
66946;SDS011;53853;51.982;5.928;2024-02-28T10:29:56;39.47;;;30.52;;
66946;SDS011;53853;51.982;5.928;2024-02-28T10:32:26;37.05;;;31.00;;
66946;SDS011;53853;51.982;5.928;2024-02-28T10:34:55;34.42;;;28.60;;
66946;SDS011;53853;51.982;5.928;2024-02-28T10:37:28;37.17;;;30.08;;
66946;SDS011;53853;51.982;5.928;2024-02-28T10:40:01;41.72;;;32.55;;
66946;SDS011;53853;51.982;5.928;2024-02-28T10:42:32;37.47;;;30.70;;
66946;SDS011;53853;51.982;5.928;2024-02-28T10:45:02;33.35;;;28.33;;
66946;SDS011;53853;51.982;5.928;2024-02-28T10:50:07;32.75;;;26.30;;
66946;SDS011;53853;51.982;5.928;2024-02-28T10:52:39;37.05;;;29.20;;
66946;SDS011;53853;51.982;5.928;2024-02-28T10:55:17;29.15;;;24.95;;
66946;SDS011;53853;51.982;5.928;2024-02-28T10:57:53;26.48;;;22.77;;
66946;SDS011;53853;51.982;5.928;2024-02-28T11:00:27;27.45;;;24.08;;
66946;SDS011;53853;51.982;5.928;2024-02-28T11:02:57;28.63;;;23.92;;
66946;SDS011;53853;51.982;5.928;2024-02-28T11:05:35;28.17;;;24.77;;
66946;SDS011;53853;51.982;5.928;2024-02-28T11:08:08;25.50;;;22.48;;
66946;SDS011;53853;51.982;5.928;2024-02-28T11:10:43;29.63;;;26.42;;
66946;SDS011;53853;51.982;5.928;2024-02-28T11:13:21;31.20;;;27.65;;
66946;SDS011;53853;51.982;5.928;2024-02-28T11:15:51;32.70;;;28.45;;
66946;SDS011;53853;51.982;5.928;2024-02-28T11:18:22;26.00;;;22.65;;
66946;SDS011;53853;51.982;5.928;2024-02-28T11:20:52;27.23;;;23.27;;
66946;SDS011;53853;51.982;5.928;2024-02-28T11:23:22;23.73;;;20.00;;
66946;SDS011;53853;51.982;5.928;2024-02-28T11:25:54;27.83;;;21.77;;
66946;SDS011;53853;51.982;5.928;2024-02-28T11:28:24;29.65;;;24.65;;
66946;SDS011;53853;51.982;5.928;2024-02-28T11:30:54;28.50;;;23.85;;
66946;SDS011;53853;51.982;5.928;2024-02-28T11:33:24;26.85;;;23.75;;
66946;SDS011;53853;51.982;5.928;2024-02-28T11:35:55;27.20;;;23.05;;
66946;SDS011;53853;51.982;5.928;2024-02-28T11:38:25;32.42;;;25.55;;
66946;SDS011;53853;51.982;5.928;2024-02-28T11:40:57;25.45;;;21.63;;
66946;SDS011;53853;51.982;5.928;2024-02-28T11:43:27;22.25;;;20.02;;
66946;SDS011;53853;51.982;5.928;2024-02-28T11:46:00;30.88;;;27.30;;
66946;SDS011;53853;51.982;5.928;2024-02-28T11:48:30;27.85;;;24.23;;
66946;SDS011;53853;51.982;5.928;2024-02-28T11:51:00;23.58;;;20.83;;
66946;SDS011;53853;51.982;5.928;2024-02-28T11:53:30;24.27;;;21.48;;
66946;SDS011;53853;51.982;5.928;2024-02-28T11:56:02;26.05;;;21.95;;
66946;SDS011;53853;51.982;5.928;2024-02-28T11:58:33;26.30;;;23.50;;
66946;SDS011;53853;51.982;5.928;2024-02-28T12:01:03;22.58;;;20.17;;
66946;SDS011;53853;51.982;5.928;2024-02-28T12:03:33;27.50;;;23.98;;
66946;SDS011;53853;51.982;5.928;2024-02-28T12:06:03;26.48;;;22.70;;
66946;SDS011;53853;51.982;5.928;2024-02-28T12:08:34;27.95;;;24.42;;
66946;SDS011;53853;51.982;5.928;2024-02-28T12:11:10;30.98;;;26.17;;
66946;SDS011;53853;51.982;5.928;2024-02-28T12:13:39;28.42;;;24.65;;
66946;SDS011;53853;51.982;5.928;2024-02-28T12:16:09;35.40;;;29.38;;
66946;SDS011;53853;51.982;5.928;2024-02-28T12:18:40;30.48;;;24.90;;
66946;SDS011;53853;51.982;5.928;2024-02-28T12:21:10;26.48;;;23.67;;
66946;SDS011;53853;51.982;5.928;2024-02-28T12:23:40;30.60;;;24.67;;
66946;SDS011;53853;51.982;5.928;2024-02-28T12:26:13;30.42;;;27.20;;
66946;SDS011;53853;51.982;5.928;2024-02-28T12:28:43;29.70;;;26.05;;
66946;SDS011;53853;51.982;5.928;2024-02-28T12:31:13;23.95;;;21.35;;
66946;SDS011;53853;51.982;5.928;2024-02-28T12:33:44;28.98;;;23.30;;
66946;SDS011;53853;51.982;5.928;2024-02-28T12:36:13;27.10;;;24.23;;
66946;SDS011;53853;51.982;5.928;2024-02-28T12:38:43;25.23;;;22.52;;
66946;SDS011;53853;51.982;5.928;2024-02-28T12:41:16;29.77;;;26.23;;
66946;SDS011;53853;51.982;5.928;2024-02-28T12:43:46;25.50;;;22.83;;
66946;SDS011;53853;51.982;5.928;2024-02-28T12:46:16;30.52;;;26.13;;
66946;SDS011;53853;51.982;5.928;2024-02-28T12:48:45;25.10;;;22.50;;
66946;SDS011;53853;51.982;5.928;2024-02-28T12:51:20;25.83;;;23.02;;
66946;SDS011;53853;51.982;5.928;2024-02-28T12:54:05;24.10;;;21.23;;
66946;SDS011;53853;51.982;5.928;2024-02-28T12:56:38;21.30;;;19.05;;
66946;SDS011;53853;51.982;5.928;2024-02-28T12:59:09;23.70;;;21.35;;
66946;SDS011;53853;51.982;5.928;2024-02-28T13:01:39;24.33;;;21.30;;
66946;SDS011;53853;51.982;5.928;2024-02-28T13:04:09;25.15;;;21.42;;
66946;SDS011;53853;51.982;5.928;2024-02-28T13:06:39;21.98;;;19.08;;
66946;SDS011;53853;51.982;5.928;2024-02-28T13:09:09;28.58;;;23.00;;
66946;SDS011;53853;51.982;5.928;2024-02-28T13:11:43;22.95;;;19.98;;
66946;SDS011;53853;51.982;5.928;2024-02-28T13:14:13;28.02;;;22.85;;
66946;SDS011;53853;51.982;5.928;2024-02-28T13:16:44;27.17;;;22.65;;
66946;SDS011;53853;51.982;5.928;2024-02-28T13:19:14;28.02;;;23.98;;
66946;SDS011;53853;51.982;5.928;2024-02-28T13:21:44;28.00;;;24.45;;
66946;SDS011;53853;51.982;5.928;2024-02-28T13:24:14;31.05;;;26.13;;
66946;SDS011;53853;51.982;5.928;2024-02-28T13:26:46;29.17;;;24.15;;
66946;SDS011;53853;51.982;5.928;2024-02-28T13:29:16;25.55;;;22.60;;
66946;SDS011;53853;51.982;5.928;2024-02-28T13:31:46;20.15;;;17.95;;
66946;SDS011;53853;51.982;5.928;2024-02-28T13:34:16;23.48;;;20.25;;
66946;SDS011;53853;51.982;5.928;2024-02-28T13:36:46;30.13;;;24.48;;
66946;SDS011;53853;51.982;5.928;2024-02-28T13:39:16;28.60;;;22.77;;
66946;SDS011;53853;51.982;5.928;2024-02-28T13:41:49;23.05;;;20.33;;
66946;SDS011;53853;51.982;5.928;2024-02-28T13:44:19;25.10;;;20.02;;
66946;SDS011;53853;51.982;5.928;2024-02-28T13:46:49;30.95;;;23.65;;
66946;SDS011;53853;51.982;5.928;2024-02-28T13:49:20;22.33;;;17.67;;
66946;SDS011;53853;51.982;5.928;2024-02-28T13:51:50;18.17;;;16.17;;
66946;SDS011;53853;51.982;5.928;2024-02-28T13:54:20;20.88;;;17.35;;
66946;SDS011;53853;51.982;5.928;2024-02-28T13:56:52;29.88;;;22.33;;
66946;SDS011;53853;51.982;5.928;2024-02-28T13:59:22;21.27;;;18.55;;
66946;SDS011;53853;51.982;5.928;2024-02-28T14:01:52;24.08;;;19.83;;
66946;SDS011;53853;51.982;5.928;2024-02-28T14:04:22;18.58;;;16.33;;
66946;SDS011;53853;51.982;5.928;2024-02-28T14:06:52;18.85;;;16.85;;
66946;SDS011;53853;51.982;5.928;2024-02-28T14:09:22;15.40;;;13.52;;
66946;SDS011;53853;51.982;5.928;2024-02-28T14:11:54;19.80;;;16.48;;
66946;SDS011;53853;51.982;5.928;2024-02-28T14:14:24;19.73;;;16.75;;
66946;SDS011;53853;51.982;5.928;2024-02-28T14:16:54;21.02;;;17.75;;
66946;SDS011;53853;51.982;5.928;2024-02-28T14:19:24;17.55;;;15.27;;
66946;SDS011;53853;51.982;5.928;2024-02-28T14:21:54;15.85;;;14.00;;
66946;SDS011;53853;51.982;5.928;2024-02-28T14:24:24;19.00;;;14.80;;
66946;SDS011;53853;51.982;5.928;2024-02-28T14:26:56;23.20;;;16.55;;
66946;SDS011;53853;51.982;5.928;2024-02-28T14:29:26;20.00;;;17.73;;
66946;SDS011;53853;51.982;5.928;2024-02-28T14:31:56;20.35;;;17.05;;
66946;SDS011;53853;51.982;5.928;2024-02-28T14:34:26;25.52;;;20.58;;
66946;SDS011;53853;51.982;5.928;2024-02-28T14:36:57;33.70;;;26.35;;
66946;SDS011;53853;51.982;5.928;2024-02-28T14:39:27;28.55;;;23.73;;
66946;SDS011;53853;51.982;5.928;2024-02-28T14:42:00;27.27;;;22.65;;
66946;SDS011;53853;51.982;5.928;2024-02-28T14:44:29;22.77;;;19.75;;